EZS1359 LSGG-LATI
Flight info
| Callsign | EZS1359 |
|---|---|
| Flight time | N/A |
| Altitude | 37000 |
| Route | MEDAM1N MEDAM DCT NITAM DCT MOGBO DCT TOP DCT LURUT DCT EDUGI DCT AMUGO DCT PETAK PETAK3M |
| Aircraft | A320/M-SDE3FGHIRWY/LB1 |
Departure
| Time | 2026-05-07 08:29 |
|---|---|
| Airport | Geneva International Airport (LSGG) |
Arrival
| Time | N/A |
|---|---|
| Airport | Tirana International Airport Mother Teresa (LATI) |
| Time | Latitude | Longitude | Altitude | Speed | Heading |
|---|---|---|---|---|---|
| 2026-05-07 08:01 | 46.23309 | 6.10962 | 1403 ft | 0 kts | 135° |
| 2026-05-07 08:01 | 46.23311 | 6.10959 | 1403 ft | 0 kts | 135° |
| 2026-05-07 08:21 | 46.23319 | 6.10948 | 1397 ft | 4 kts | 135° |
| 2026-05-07 08:21 | 46.23338 | 6.10921 | 1400 ft | 4 kts | 135° |
| 2026-05-07 08:21 | 46.23354 | 6.10899 | 1403 ft | 4 kts | 123° |
| 2026-05-07 08:21 | 46.23360 | 6.10866 | 1399 ft | 4 kts | 73° |
| 2026-05-07 08:22 | 46.23348 | 6.10834 | 1404 ft | 3 kts | 46° |
| 2026-05-07 08:22 | 46.23345 | 6.10830 | 1404 ft | 0 kts | 45° |
| 2026-05-07 08:24 | 46.23348 | 6.10834 | 1393 ft | 4 kts | 45° |
| 2026-05-07 08:24 | 46.23395 | 6.10903 | 1394 ft | 11 kts | 46° |
| 2026-05-07 08:24 | 46.23451 | 6.10986 | 1398 ft | 10 kts | 45° |
| 2026-05-07 08:24 | 46.23498 | 6.11055 | 1398 ft | 9 kts | 45° |
| 2026-05-07 08:25 | 46.23539 | 6.11115 | 1400 ft | 8 kts | 45° |
| 2026-05-07 08:25 | 46.23576 | 6.11167 | 1399 ft | 7 kts | 41° |
| 2026-05-07 08:25 | 46.23623 | 6.11133 | 1395 ft | 9 kts | 314° |
| 2026-05-07 08:25 | 46.23665 | 6.11074 | 1387 ft | 11 kts | 319° |
| 2026-05-07 08:26 | 46.23835 | 6.11269 | 1375 ft | 22 kts | 46° |
| 2026-05-07 08:26 | 46.23951 | 6.11441 | 1374 ft | 26 kts | 46° |
| 2026-05-07 08:26 | 46.24084 | 6.11637 | 1368 ft | 28 kts | 45° |
| 2026-05-07 08:27 | 46.24219 | 6.11835 | 1363 ft | 28 kts | 45° |
| 2026-05-07 08:27 | 46.24307 | 6.11954 | 1363 ft | 12 kts | 30° |
| 2026-05-07 08:27 | 46.24340 | 6.11902 | 1365 ft | 8 kts | 266° |
| 2026-05-07 08:27 | 46.24325 | 6.11787 | 1369 ft | 15 kts | 259° |
| 2026-05-07 08:28 | 46.24341 | 6.11695 | 1371 ft | 3 kts | 298° |
| 2026-05-07 08:28 | 46.24332 | 6.11663 | 1373 ft | 5 kts | 225° |
| 2026-05-07 08:28 | 46.24199 | 6.11473 | 1374 ft | 63 kts | 225° |
| 2026-05-07 08:28 | 46.23729 | 6.10783 | 1381 ft | 127 kts | 225° |
| 2026-05-07 08:29 | 46.22992 | 6.09705 | 1466 ft | 168 kts | 225° |
| 2026-05-07 08:29 | 46.22146 | 6.08476 | 2052 ft | 176 kts | 225° |
| 2026-05-07 08:29 | 46.21265 | 6.07198 | 2699 ft | 185 kts | 225° |
| 2026-05-07 08:29 | 46.20313 | 6.05802 | 3080 ft | 206 kts | 226° |
| 2026-05-07 08:30 | 46.19274 | 6.04269 | 3441 ft | 227 kts | 226° |
| 2026-05-07 08:30 | 46.18108 | 6.02552 | 3893 ft | 251 kts | 225° |
| 2026-05-07 08:30 | 46.16781 | 6.00827 | 4671 ft | 261 kts | 212° |
| 2026-05-07 08:30 | 46.15073 | 5.99935 | 5569 ft | 266 kts | 186° |
| 2026-05-07 08:31 | 46.13235 | 6.00269 | 6497 ft | 272 kts | 158° |
| 2026-05-07 08:31 | 46.11627 | 6.01730 | 7367 ft | 276 kts | 143° |
| 2026-05-07 08:31 | 46.10097 | 6.03426 | 8272 ft | 279 kts | 143° |
| 2026-05-07 08:31 | 46.08545 | 6.05153 | 9168 ft | 284 kts | 143° |
| 2026-05-07 08:32 | 46.06971 | 6.06902 | 10030 ft | 288 kts | 143° |
| 2026-05-07 08:32 | 46.05335 | 6.08713 | 10488 ft | 308 kts | 143° |
| 2026-05-07 08:32 | 46.03574 | 6.10656 | 10833 ft | 329 kts | 143° |
| 2026-05-07 08:32 | 46.01728 | 6.12687 | 11472 ft | 338 kts | 143° |
| 2026-05-07 08:33 | 45.99842 | 6.14758 | 12201 ft | 343 kts | 143° |
| 2026-05-07 08:33 | 45.97930 | 6.16856 | 12925 ft | 349 kts | 144° |
| 2026-05-07 08:33 | 45.95984 | 6.18988 | 13659 ft | 354 kts | 144° |
| 2026-05-07 08:33 | 45.94011 | 6.21155 | 14311 ft | 359 kts | 144° |
| 2026-05-07 08:34 | 45.92013 | 6.23345 | 14972 ft | 363 kts | 144° |
| 2026-05-07 08:34 | 45.89985 | 6.25560 | 15654 ft | 367 kts | 144° |
| 2026-05-07 08:34 | 45.87967 | 6.27764 | 16317 ft | 371 kts | 144° |
| 2026-05-07 08:34 | 45.85878 | 6.30047 | 16990 ft | 375 kts | 144° |
| 2026-05-07 08:35 | 45.83816 | 6.32301 | 17609 ft | 379 kts | 144° |
| 2026-05-07 08:35 | 45.81703 | 6.34605 | 18250 ft | 384 kts | 144° |
| 2026-05-07 08:35 | 45.79564 | 6.36930 | 18816 ft | 387 kts | 144° |
| 2026-05-07 08:35 | 45.77405 | 6.39272 | 19369 ft | 391 kts | 144° |
| 2026-05-07 08:36 | 45.75228 | 6.41633 | 19928 ft | 394 kts | 144° |
| 2026-05-07 08:36 | 45.73027 | 6.44015 | 20496 ft | 398 kts | 144° |
| 2026-05-07 08:36 | 45.70815 | 6.46407 | 21036 ft | 401 kts | 144° |
| 2026-05-07 08:36 | 45.68580 | 6.48823 | 21568 ft | 404 kts | 144° |
| 2026-05-07 08:37 | 45.66331 | 6.51257 | 22093 ft | 407 kts | 144° |
| 2026-05-07 08:37 | 45.64063 | 6.53714 | 22595 ft | 410 kts | 144° |
| 2026-05-07 08:37 | 45.61779 | 6.56185 | 23122 ft | 414 kts | 144° |
| 2026-05-07 08:37 | 45.59475 | 6.58669 | 23628 ft | 417 kts | 144° |
| 2026-05-07 08:38 | 45.57151 | 6.61169 | 24037 ft | 419 kts | 145° |
| 2026-05-07 08:38 | 45.54819 | 6.63676 | 24455 ft | 422 kts | 145° |
| 2026-05-07 08:38 | 45.52459 | 6.66212 | 24844 ft | 425 kts | 145° |
| 2026-05-07 08:38 | 45.50079 | 6.68770 | 25248 ft | 428 kts | 145° |
| 2026-05-07 08:39 | 45.47688 | 6.71336 | 25659 ft | 431 kts | 145° |
| 2026-05-07 08:39 | 45.45286 | 6.73913 | 26061 ft | 433 kts | 145° |
| 2026-05-07 08:39 | 45.42866 | 6.76505 | 26442 ft | 436 kts | 145° |
| 2026-05-07 08:39 | 45.40437 | 6.79102 | 26815 ft | 439 kts | 146° |
| 2026-05-07 08:40 | 45.37985 | 6.81720 | 27205 ft | 441 kts | 146° |
| 2026-05-07 08:40 | 45.35522 | 6.84343 | 27541 ft | 444 kts | 146° |
| 2026-05-07 08:40 | 45.33032 | 6.86990 | 27905 ft | 447 kts | 146° |
| 2026-05-07 08:40 | 45.30538 | 6.89640 | 28275 ft | 450 kts | 146° |
| 2026-05-07 08:41 | 45.28024 | 6.92312 | 28639 ft | 452 kts | 146° |
| 2026-05-07 08:41 | 45.25585 | 6.95164 | 28992 ft | 458 kts | 139° |
| 2026-05-07 08:41 | 45.23297 | 6.98326 | 29349 ft | 460 kts | 139° |
| 2026-05-07 08:41 | 45.21005 | 7.01498 | 29704 ft | 462 kts | 139° |
| 2026-05-07 08:42 | 45.18686 | 7.04700 | 30042 ft | 465 kts | 139° |
| 2026-05-07 08:42 | 45.16362 | 7.07899 | 30285 ft | 468 kts | 139° |
| 2026-05-07 08:42 | 45.14007 | 7.11129 | 30492 ft | 472 kts | 140° |
| 2026-05-07 08:42 | 45.11648 | 7.14383 | 30738 ft | 476 kts | 137° |
| 2026-05-07 08:43 | 45.09505 | 7.17990 | 30980 ft | 482 kts | 129° |
| 2026-05-07 08:43 | 45.07575 | 7.21890 | 31242 ft | 485 kts | 128° |
| 2026-05-07 08:43 | 45.05642 | 7.25802 | 31532 ft | 486 kts | 128° |
| 2026-05-07 08:43 | 45.03704 | 7.29717 | 31912 ft | 485 kts | 128° |
| 2026-05-07 08:44 | 45.01789 | 7.33566 | 32282 ft | 484 kts | 128° |
| 2026-05-07 08:44 | 44.99913 | 7.37588 | 32661 ft | 486 kts | 122° |
| 2026-05-07 08:44 | 44.98457 | 7.41911 | 33014 ft | 489 kts | 112° |
| 2026-05-07 08:44 | 44.97482 | 7.46466 | 33363 ft | 491 kts | 103° |
| 2026-05-07 08:45 | 44.96887 | 7.51212 | 33705 ft | 491 kts | 101° |
| 2026-05-07 08:45 | 44.96317 | 7.55975 | 34045 ft | 491 kts | 101° |
| 2026-05-07 08:45 | 44.95740 | 7.60730 | 34343 ft | 491 kts | 101° |
| 2026-05-07 08:45 | 44.95152 | 7.65475 | 34646 ft | 490 kts | 102° |
| 2026-05-07 08:46 | 44.94557 | 7.70208 | 34941 ft | 489 kts | 102° |
| 2026-05-07 08:46 | 44.93959 | 7.74938 | 35230 ft | 489 kts | 102° |
| 2026-05-07 08:46 | 44.93360 | 7.79660 | 35518 ft | 488 kts | 102° |
| 2026-05-07 08:46 | 44.92762 | 7.84377 | 35790 ft | 488 kts | 102° |
| 2026-05-07 08:47 | 44.92370 | 7.87494 | 35967 ft | 487 kts | 102° |
| 2026-05-07 08:47 | 44.91803 | 7.92223 | 36229 ft | 487 kts | 101° |
| 2026-05-07 08:47 | 44.91263 | 7.96938 | 36455 ft | 487 kts | 101° |
| 2026-05-07 08:47 | 44.90732 | 8.01660 | 36671 ft | 488 kts | 101° |
| 2026-05-07 08:48 | 44.90026 | 8.07930 | 36938 ft | 489 kts | 101° |
| 2026-05-07 08:48 | 44.89488 | 8.12645 | 37013 ft | 488 kts | 101° |
| 2026-05-07 08:48 | 44.88573 | 8.20504 | 37015 ft | 486 kts | 102° |
| 2026-05-07 08:49 | 44.87462 | 8.29928 | 37013 ft | 486 kts | 102° |
| 2026-05-07 08:49 | 44.86341 | 8.39339 | 37005 ft | 486 kts | 102° |
| 2026-05-07 08:50 | 44.85216 | 8.48728 | 37013 ft | 486 kts | 102° |
| 2026-05-07 08:50 | 44.84089 | 8.58107 | 37008 ft | 485 kts | 102° |
| 2026-05-07 08:51 | 44.82951 | 8.67483 | 37004 ft | 485 kts | 102° |
| 2026-05-07 08:51 | 44.81802 | 8.76810 | 36991 ft | 485 kts | 103° |
| 2026-05-07 08:52 | 44.80651 | 8.86162 | 36998 ft | 484 kts | 103° |
| 2026-05-07 08:52 | 44.79497 | 8.95512 | 37001 ft | 484 kts | 103° |
| 2026-05-07 08:53 | 44.78335 | 9.04853 | 36994 ft | 484 kts | 103° |
| 2026-05-07 08:53 | 44.77164 | 9.14177 | 36979 ft | 483 kts | 103° |
| 2026-05-07 08:54 | 44.75994 | 9.23434 | 36983 ft | 483 kts | 103° |
| 2026-05-07 08:54 | 44.74813 | 9.32750 | 36987 ft | 483 kts | 103° |
| 2026-05-07 08:55 | 44.73619 | 9.42051 | 36979 ft | 483 kts | 103° |
| 2026-05-07 08:55 | 44.72410 | 9.51341 | 36961 ft | 483 kts | 104° |
| 2026-05-07 08:56 | 44.71200 | 9.60630 | 36969 ft | 483 kts | 104° |
| 2026-05-07 08:56 | 44.69987 | 9.69922 | 36969 ft | 483 kts | 104° |
| 2026-05-07 08:57 | 44.68774 | 9.79213 | 36969 ft | 483 kts | 104° |
| 2026-05-07 08:57 | 44.67543 | 9.88496 | 36969 ft | 484 kts | 104° |
| 2026-05-07 08:58 | 44.66294 | 9.97801 | 36989 ft | 484 kts | 104° |
| 2026-05-07 08:58 | 44.65047 | 10.07077 | 36978 ft | 485 kts | 104° |
| 2026-05-07 08:59 | 44.63795 | 10.16382 | 36978 ft | 485 kts | 104° |
| 2026-05-07 08:59 | 44.62530 | 10.25688 | 36968 ft | 485 kts | 104° |
| 2026-05-07 09:00 | 44.61259 | 10.34974 | 36994 ft | 484 kts | 104° |
| 2026-05-07 09:00 | 44.59989 | 10.44191 | 37006 ft | 483 kts | 104° |
| 2026-05-07 09:01 | 44.58700 | 10.53436 | 37012 ft | 483 kts | 105° |
| 2026-05-07 09:01 | 44.57414 | 10.62669 | 36995 ft | 482 kts | 105° |
| 2026-05-07 09:02 | 44.56123 | 10.71896 | 37009 ft | 481 kts | 105° |
| 2026-05-07 09:02 | 44.54828 | 10.81096 | 37008 ft | 481 kts | 105° |
| 2026-05-07 09:03 | 44.53517 | 10.90269 | 37009 ft | 480 kts | 105° |
| 2026-05-07 09:03 | 44.52131 | 10.99414 | 37013 ft | 477 kts | 110° |
| 2026-05-07 09:04 | 44.50235 | 11.08328 | 37010 ft | 476 kts | 111° |
| 2026-05-07 09:04 | 44.48337 | 11.17168 | 37007 ft | 476 kts | 111° |
| 2026-05-07 09:05 | 44.46419 | 11.26060 | 37005 ft | 476 kts | 111° |
| 2026-05-07 09:05 | 44.44501 | 11.34947 | 36989 ft | 476 kts | 111° |
| 2026-05-07 09:06 | 44.42568 | 11.43830 | 36992 ft | 476 kts | 112° |
| 2026-05-07 09:06 | 44.40630 | 11.52697 | 36973 ft | 476 kts | 111° |
| 2026-05-07 09:07 | 44.38706 | 11.61507 | 36995 ft | 477 kts | 111° |
| 2026-05-07 09:07 | 44.36759 | 11.70378 | 36987 ft | 477 kts | 112° |
| 2026-05-07 09:08 | 44.34794 | 11.79245 | 37001 ft | 477 kts | 112° |
| 2026-05-07 09:08 | 44.32826 | 11.88089 | 37010 ft | 477 kts | 112° |
| 2026-05-07 09:09 | 44.30849 | 11.96938 | 37014 ft | 477 kts | 112° |
| 2026-05-07 09:09 | 44.28873 | 12.05787 | 36983 ft | 477 kts | 112° |
| 2026-05-07 09:10 | 44.26889 | 12.14619 | 36997 ft | 477 kts | 112° |
| 2026-05-07 09:10 | 44.24892 | 12.23444 | 37030 ft | 476 kts | 113° |
| 2026-05-07 09:11 | 44.22902 | 12.32242 | 37029 ft | 476 kts | 112° |
| 2026-05-07 09:11 | 44.20914 | 12.41046 | 37002 ft | 476 kts | 113° |
| 2026-05-07 09:12 | 44.18903 | 12.49833 | 37006 ft | 476 kts | 113° |
| 2026-05-07 09:12 | 44.16886 | 12.58616 | 36987 ft | 476 kts | 113° |
| 2026-05-07 09:13 | 44.14874 | 12.67349 | 36991 ft | 476 kts | 113° |
| 2026-05-07 09:13 | 44.12849 | 12.76128 | 36996 ft | 476 kts | 113° |
| 2026-05-07 09:14 | 44.10811 | 12.84897 | 36992 ft | 476 kts | 113° |